Time;durP1;ratioP1;P1;durP2;ratioP2;P2;SDS_P1;SDS_P2;PMS_P1;PMS_P2;Temp;Humidity;BMP_temperature;BMP_pressure;BME280_temperature;BME280_humidity;BME280_pressure;Samples;Min_cycle;Max_cycle;Signal;HPM_P1;HPM_P2
2022/12/26 00:00:01;;;;;;;19.80;7.15;;;;;;;2.52;97.82;95565.13;5133162;27;20197;-77
2022/12/26 00:02:28;;;;;;;13.90;6.65;;;;;;;2.48;97.99;95562.13;5118813;27;20675;-78
2022/12/26 00:04:54;;;;;;;12.02;6.47;;;;;;;2.44;97.82;95563.72;5120034;27;20273;-77
2022/12/26 00:07:22;;;;;;;18.48;6.70;;;;;;;2.45;98.04;95568.81;5132150;27;20655;-78
2022/12/26 00:09:49;;;;;;;19.52;7.50;;;;;;;2.48;98.10;95562.94;5119110;27;20262;-78
2022/12/26 00:12:16;;;;;;;16.98;8.73;;;;;;;2.42;97.61;95563.16;5125466;27;20262;-79
2022/12/26 00:14:43;;;;;;;19.83;9.40;;;;;;;2.32;97.67;95565.75;5125401;27;20600;-78
2022/12/26 00:17:09;;;;;;;12.30;5.47;;;;;;;2.27;97.92;95565.69;5118284;27;20630;-78
2022/12/26 00:19:36;;;;;;;11.52;4.05;;;;;;;2.21;97.75;95566.69;5118548;27;20605;-78
2022/12/26 00:22:03;;;;;;;9.02;4.43;;;;;;;2.28;97.84;95578.00;5124957;27;20254;-78
2022/12/26 00:24:31;;;;;;;11.00;4.90;;;;;;;2.32;97.14;95579.13;5124627;27;20196;-78
2022/12/26 00:26:58;;;;;;;8.02;3.88;;;;;;;2.24;96.53;95571.53;5119701;27;20261;-78
2022/12/26 00:29:24;;;;;;;14.15;4.85;;;;;;;2.19;96.53;95580.28;5118186;27;20198;-78
2022/12/26 00:31:51;;;;;;;10.68;5.47;;;;;;;2.17;96.84;95578.97;5123717;27;20198;-79
2022/12/26 00:34:18;;;;;;;8.48;3.85;;;;;;;2.13;97.73;95575.97;5125673;27;20294;-78
2022/12/26 00:36:45;;;;;;;4.63;3.28;;;;;;;2.26;97.90;95578.25;5119806;27;20599;-78
2022/12/26 00:39:11;;;;;;;11.77;5.13;;;;;;;2.22;97.41;95576.31;5117996;27;20768;-78
2022/12/26 00:41:40;;;;;;;14.52;5.97;;;;;;;2.19;97.37;95579.53;5132101;27;20230;-78
2022/12/26 00:44:06;;;;;;;6.55;3.85;;;;;;;2.21;97.07;95580.84;5118371;27;20341;-78
2022/12/26 00:46:33;;;;;;;10.32;4.38;;;;;;;2.13;97.45;95584.78;5131887;27;20224;-78
2022/12/26 00:49:00;;;;;;;5.63;4.07;;;;;;;2.23;98.10;95580.59;5117487;27;20229;-78
2022/12/26 00:51:27;;;;;;;9.13;3.95;;;;;;;2.18;97.72;95584.06;5123660;27;20601;-77
2022/12/26 00:53:53;;;;;;;11.95;4.45;;;;;;;2.24;96.96;95582.22;5110434;28;20213;-79
2022/12/26 00:56:20;;;;;;;8.98;4.55;;;;;;;2.09;97.43;95574.84;5119662;27;20205;-79
2022/12/26 00:58:48;;;;;;;5.30;2.70;;;;;;;2.22;96.45;95585.16;5117283;27;20269;-78
2022/12/26 01:01:18;;;;;;;7.13;3.72;;;;;;;2.11;97.53;95584.25;5122207;27;20267;-78
2022/12/26 01:03:46;;;;;;;10.13;3.75;;;;;;;2.13;97.57;95584.78;5127812;27;20618;-78
2022/12/26 01:06:14;;;;;;;8.65;3.63;;;;;;;2.11;97.38;95584.25;5121396;27;20313;-78
2022/12/26 01:08:41;;;;;;;22.15;10.43;;;;;;;1.97;97.75;95591.03;5124338;27;20224;-77
2022/12/26 01:11:09;;;;;;;21.75;10.60;;;;;;;1.93;98.25;95595.25;5110519;28;20201;-78
2022/12/26 01:13:36;;;;;;;7.75;3.78;;;;;;;1.99;98.83;95596.13;5124074;27;20237;-78
2022/12/26 01:16:05;;;;;;;10.00;3.80;;;;;;;2.01;98.39;95594.81;5110906;28;20259;-78
2022/12/26 01:18:33;;;;;;;7.30;3.60;;;;;;;2.05;98.54;95603.16;5128450;27;21018;-77
2022/12/26 01:21:01;;;;;;;8.68;3.92;;;;;;;2.04;98.18;95605.00;5130864;27;20211;-78
2022/12/26 01:23:28;;;;;;;4.88;2.60;;;;;;;2.06;98.55;95608.22;5116192;27;20609;-79
2022/12/26 01:25:55;;;;;;;5.90;2.58;;;;;;;1.99;99.33;95612.97;5130267;27;20205;-78
2022/12/26 01:28:22;;;;;;;10.73;3.92;;;;;;;2.07;98.37;95631.22;5117141;27;20662;-78
2022/12/26 01:30:49;;;;;;;12.07;5.18;;;;;;;2.00;98.58;95625.25;5118868;27;20201;-78
2022/12/26 01:33:17;;;;;;;6.63;3.13;;;;;;;2.13;98.51;95619.53;5124373;27;20205;-79
2022/12/26 01:35:51;;;;;;;9.23;3.20;;;;;;;2.18;98.71;95620.66;5109771;28;20286;-78
2022/12/26 01:38:19;;;;;;;11.82;3.72;;;;;;;2.18;98.16;95623.34;5116517;27;20646;-79
2022/12/26 01:40:47;;;;;;;8.25;4.80;;;;;;;2.04;97.50;95626.38;5117500;27;20220;-78
2022/12/26 01:43:16;;;;;;;3.63;2.13;;;;;;;1.98;97.99;95616.69;5117559;27;20201;-79
2022/12/26 01:45:48;;;;;;;9.95;4.50;;;;;;;2.02;98.60;95612.47;5116786;27;20208;-79
2022/12/26 01:48:20;;;;;;;4.38;2.83;;;;;;;2.11;98.68;95600.28;5121945;27;20224;-78
2022/12/26 01:50:55;;;;;;;11.85;3.63;;;;;;;2.09;99.18;95597.03;5124102;27;20310;-78
2022/12/26 01:53:25;;;;;;;8.82;4.00;;;;;;;2.10;98.77;95601.31;5121613;27;20188;-78
2022/12/26 01:55:57;;;;;;;7.03;2.95;;;;;;;2.01;98.69;95594.81;5116144;27;20221;-79
2022/12/26 01:58:30;;;;;;;5.22;2.58;;;;;;;1.98;98.67;95600.66;5123219;27;20261;-78
2022/12/26 02:00:57;;;;;;;12.02;3.35;;;;;;;1.96;97.18;95594.75;5116918;27;20198;-78
2022/12/26 02:06:12;;;;;;;5.18;2.35;;;;;;;1.77;98.97;95596.13;5118987;28;20189;-77
2022/12/26 02:08:39;;;;;;;6.57;3.63;;;;;;;1.78;100.00;95590.53;5114096;27;20737;-77
2022/12/26 02:11:12;;;;;;;7.35;3.58;;;;;;;1.83;100.00;95589.78;5120045;28;20197;-78
2022/12/26 02:13:41;;;;;;;7.35;3.17;;;;;;;1.91;100.00;95589.38;5112449;28;20233;-78
2022/12/26 02:16:10;;;;;;;6.22;3.20;;;;;;;1.91;100.00;95586.69;5120589;28;20339;-78
2022/12/26 02:18:38;;;;;;;4.15;3.03;;;;;;;1.91;100.00;95581.34;5116640;28;20204;-79
2022/12/26 02:21:24;;;;;;;3.75;2.25;;;;;;;1.82;99.16;95584.69;5118049;28;20205;-78
2022/12/26 02:24:24;;;;;;;8.50;3.58;;;;;;;1.71;99.17;95581.09;5117520;28;20196;-78
2022/12/26 02:27:18;;;;;;;10.73;5.03;;;;;;;1.78;100.00;95574.50;5116365;28;20204;-78
2022/12/26 02:30:06;;;;;;;5.85;3.65;;;;;;;1.74;99.52;95578.75;5116510;28;20193;-78
2022/12/26 02:33:14;;;;;;;4.15;3.08;;;;;;;1.67;98.84;95571.94;5117608;28;20334;-77
2022/12/26 02:35:54;;;;;;;9.27;4.55;;;;;;;1.64;98.98;95572.47;5085084;27;20232;-78
2022/12/26 02:38:34;;;;;;;6.55;3.17;;;;;;;1.63;99.91;95576.19;5121599;27;20629;-78
2022/12/26 02:41:09;;;;;;;6.03;3.75;;;;;;;1.78;99.86;95573.69;5132648;27;20538;-78
2022/12/26 02:43:42;;;;;;;11.45;3.42;;;;;;;1.74;100.00;95573.41;5115558;27;20574;-78
2022/12/26 02:49:10;;;;;;;8.77;4.25;;;;;;;1.67;99.25;95577.28;5121399;27;20231;-77
2022/12/26 03:14:44;;;;;;;7.28;2.20;;;;;;;1.58;98.86;95562.78;5122124;27;20223;-78
2022/12/26 03:17:20;;;;;;;7.20;3.58;;;;;;;1.32;99.41;95581.13;5133680;27;20196;-78
2022/12/26 03:20:01;;;;;;;6.30;3.50;;;;;;;1.32;100.00;95578.47;5120114;27;20193;-77
2022/12/26 03:22:36;;;;;;;10.32;3.25;;;;;;;1.34;99.51;95584.38;5133503;27;20193;-78
2022/12/26 03:27:50;;;;;;;6.03;3.15;;;;;;;1.28;100.00;95589.88;5126601;27;20676;-78
2022/12/26 03:32:59;;;;;;;6.45;3.38;;;;;;;1.40;100.00;95610.06;5101761;27;20632;-77
2022/12/26 03:35:28;;;;;;;7.60;3.17;;;;;;;1.54;100.00;95591.81;5123249;27;20229;-77
2022/12/26 03:38:03;;;;;;;3.40;2.42;;;;;;;1.60;100.00;95593.50;5129359;27;20310;-78
2022/12/26 04:41:34;;;;;;;6.65;3.20;;;;;;;1.23;99.46;95598.59;5132603;27;20228;-77
2022/12/26 04:46:23;;;;;;;6.65;3.17;;;;;;;1.30;100.00;95599.25;5125288;27;20659;-78
2022/12/26 04:51:36;;;;;;;4.18;2.72;;;;;;;1.30;100.00;95614.44;5121220;27;20207;-78
2022/12/26 04:54:04;;;;;;;5.47;3.55;;;;;;;1.35;100.00;95610.00;5115154;27;20205;-78
2022/12/26 04:56:31;;;;;;;7.85;3.90;;;;;;;1.35;100.00;95612.66;5120128;27;20233;-77
2022/12/26 04:58:58;;;;;;;4.85;2.35;;;;;;;1.34;99.87;95621.72;5127786;27;20250;-77
2022/12/26 05:09:44;;;;;;;8.63;3.40;;;;;;;1.09;99.88;95613.34;5131640;27;20199;-77
2022/12/26 05:12:11;;;;;;;7.03;3.42;;;;;;;1.13;100.00;95614.47;5117551;27;20237;-77
2022/12/26 05:14:37;;;;;;;7.22;3.40;;;;;;;1.04;100.00;95622.06;5120262;27;20220;-77
2022/12/26 05:30:55;;;;;;;5.35;3.03;;;;;;;1.03;100.00;95657.00;5111175;28;20189;-77
2022/12/26 05:36:08;;;;;;;8.52;3.70;;;;;;;1.06;100.00;95656.50;5124327;27;20227;-77
2022/12/26 05:38:35;;;;;;;5.65;2.90;;;;;;;1.04;100.00;95655.94;5120387;27;20618;-78
2022/12/26 05:41:02;;;;;;;6.35;3.25;;;;;;;0.95;100.00;95652.06;5117570;27;20270;-77
2022/12/26 05:43:29;;;;;;;3.70;2.00;;;;;;;0.96;100.00;95640.31;5130882;27;20215;-77
2022/12/26 05:45:56;;;;;;;5.25;3.58;;;;;;;0.93;99.62;95646.16;5131228;27;20265;-77
2022/12/26 05:48:24;;;;;;;12.60;4.28;;;;;;;0.93;100.00;95644.31;5121132;27;20217;-77
2022/12/26 05:50:51;;;;;;;8.98;4.15;;;;;;;0.98;99.85;95648.91;5126453;27;20238;-78
2022/12/26 05:53:18;;;;;;;8.13;4.25;;;;;;;0.88;100.00;95638.06;5130504;27;20201;-77
2022/12/26 05:55:45;;;;;;;7.32;3.83;;;;;;;0.90;100.00;95644.78;5116533;27;20281;-78
2022/12/26 05:58:11;;;;;;;11.48;4.50;;;;;;;0.92;100.00;95652.56;5112575;27;20201;-78
2022/12/26 06:00:38;;;;;;;12.75;5.25;;;;;;;0.97;100.00;95644.59;5127971;27;20205;-77
2022/12/26 06:03:05;;;;;;;7.13;3.22;;;;;;;1.07;100.00;95647.47;5119443;27;20201;-77
2022/12/26 06:05:33;;;;;;;8.27;4.10;;;;;;;1.12;100.00;95646.72;5123380;27;20684;-77
2022/12/26 06:08:00;;;;;;;5.63;3.25;;;;;;;1.21;100.00;95639.94;5120898;27;20207;-77
2022/12/26 06:10:28;;;;;;;11.60;4.30;;;;;;;1.06;100.00;95645.84;5116522;27;20579;-77
2022/12/26 06:12:55;;;;;;;4.95;3.17;;;;;;;1.16;100.00;95651.34;5118006;27;20278;-77
2022/12/26 06:15:22;;;;;;;7.07;4.28;;;;;;;1.18;100.00;95662.56;5124102;27;20374;-78
2022/12/26 06:17:48;;;;;;;7.38;2.97;;;;;;;1.64;100.00;95656.03;5122375;28;20270;-78
2022/12/26 06:20:15;;;;;;;8.55;3.70;;;;;;;1.94;100.00;95642.28;5116236;28;20197;-78
2022/12/26 06:22:43;;;;;;;8.27;4.40;;;;;;;2.32;100.00;95652.09;5131602;28;20269;-78
2022/12/26 06:25:10;;;;;;;7.70;4.43;;;;;;;2.40;99.65;95650.84;5117158;28;20254;-79
2022/12/26 06:27:37;;;;;;;5.82;3.85;;;;;;;2.41;96.87;95663.16;5118075;28;20205;-77
2022/12/26 06:30:04;;;;;;;11.68;4.20;;;;;;;2.49;96.91;95657.34;5130032;28;20212;-78
2022/12/26 06:32:31;;;;;;;6.55;4.20;;;;;;;2.28;95.61;95658.19;5117156;28;20197;-77
2022/12/26 06:34:58;;;;;;;11.30;7.07;;;;;;;2.21;95.49;95662.91;5129873;28;20212;-77
2022/12/26 06:37:24;;;;;;;8.52;3.88;;;;;;;2.16;95.92;95668.22;5117184;28;20228;-77
2022/12/26 06:39:52;;;;;;;6.85;2.90;;;;;;;2.03;96.18;95659.50;5123871;28;20258;-77
2022/12/26 06:42:19;;;;;;;15.75;3.42;;;;;;;2.00;97.11;95665.34;5109774;28;20660;-78
2022/12/26 06:44:46;;;;;;;9.38;3.78;;;;;;;2.06;96.78;95661.66;5122339;28;20205;-77
2022/12/26 06:47:13;;;;;;;7.88;3.97;;;;;;;2.07;97.13;95657.94;5123351;27;20274;-78
2022/12/26 06:49:39;;;;;;;7.82;4.78;;;;;;;2.14;96.28;95658.56;5109974;28;20194;-77
2022/12/26 06:52:07;;;;;;;6.95;4.28;;;;;;;1.66;97.17;95671.81;5123690;28;20278;-77
2022/12/26 06:54:34;;;;;;;16.27;7.18;;;;;;;1.68;98.44;95675.06;5117024;28;20205;-77
2022/12/26 06:57:02;;;;;;;11.30;5.18;;;;;;;1.70;98.00;95672.94;5123560;28;20676;-77
2022/12/26 06:59:29;;;;;;;9.05;4.78;;;;;;;1.82;98.91;95681.66;5117096;28;20204;-78
2022/12/26 07:01:57;;;;;;;4.90;3.17;;;;;;;2.05;99.28;95665.38;5129866;28;20220;-78
2022/12/26 07:04:24;;;;;;;14.65;5.68;;;;;;;2.16;98.81;95671.69;5117475;28;20666;-77
2022/12/26 07:06:51;;;;;;;4.63;3.53;;;;;;;2.39;98.13;95681.31;5130266;28;20205;-77
2022/12/26 07:09:23;;;;;;;5.45;3.38;;;;;;;2.44;97.54;95676.84;5121807;28;20201;-78
2022/12/26 07:11:51;;;;;;;11.30;4.45;;;;;;;2.61;97.04;95684.75;5123724;28;20196;-78
2022/12/26 07:14:19;;;;;;;9.77;4.47;;;;;;;2.70;96.32;95693.97;5119421;27;20248;-76
2022/12/26 07:16:48;;;;;;;8.85;3.75;;;;;;;2.79;97.06;95689.75;5116189;28;20229;-77
2022/12/26 07:19:15;;;;;;;9.00;4.63;;;;;;;2.97;95.97;95699.31;5119349;28;20688;-77
2022/12/26 07:21:43;;;;;;;11.25;5.35;;;;;;;3.09;96.07;95694.59;5126395;27;20208;-78
2022/12/26 07:24:14;;;;;;;9.57;4.78;;;;;;;3.30;95.53;95692.91;5112842;28;20654;-77
2022/12/26 07:26:41;;;;;;;4.22;3.55;;;;;;;3.37;95.25;95698.84;5126767;27;20215;-79
2022/12/26 07:29:11;;;;;;;7.68;4.53;;;;;;;3.38;95.14;95700.47;5124939;27;20245;-78
2022/12/26 07:31:40;;;;;;;12.88;6.63;;;;;;;3.30;95.18;95690.22;5113695;27;20604;-78
2022/12/26 07:34:07;;;;;;;8.10;4.13;;;;;;;3.17;95.77;95687.97;5125698;27;20269;-79
2022/12/26 07:36:34;;;;;;;8.68;5.32;;;;;;;3.44;95.79;95694.09;5119875;27;20243;-78
2022/12/26 07:39:01;;;;;;;14.32;5.75;;;;;;;3.57;94.85;95692.84;5120319;27;20739;-78
2022/12/26 07:44:13;;;;;;;15.55;6.95;;;;;;;3.66;93.70;95679.78;5126463;27;20296;-79
2022/12/26 07:46:41;;;;;;;16.27;6.63;;;;;;;3.75;94.59;95683.59;5112283;28;20221;-78
2022/12/26 07:49:12;;;;;;;10.32;6.03;;;;;;;3.82;94.64;95668.09;5115657;27;20290;-78
2022/12/26 07:51:39;;;;;;;12.65;6.68;;;;;;;3.81;93.25;95678.00;5133553;27;20205;-78
2022/12/26 07:54:06;;;;;;;9.05;4.95;;;;;;;3.90;93.68;95675.66;5129702;27;20202;-79
2022/12/26 07:56:33;;;;;;;14.93;6.55;;;;;;;3.86;93.28;95669.97;5116818;27;20224;-79
2022/12/26 07:58:59;;;;;;;10.55;5.85;;;;;;;3.89;92.63;95671.34;5119267;27;20687;-79
2022/12/26 08:01:35;;;;;;;16.45;6.40;;;;;;;3.92;93.11;95668.16;5133065;27;20257;-78
2022/12/26 08:04:03;;;;;;;14.57;6.45;;;;;;;4.01;93.20;95663.91;5118933;27;20262;-79
2022/12/26 08:06:30;;;;;;;12.13;7.35;;;;;;;4.22;91.82;95659.47;5120541;27;20653;-79
2022/12/26 08:08:57;;;;;;;6.85;3.97;;;;;;;4.30;90.81;95653.56;5117121;27;20749;-79
2022/12/26 08:11:24;;;;;;;14.77;5.85;;;;;;;4.24;91.78;95655.41;5120617;27;20204;-78
2022/12/26 08:13:52;;;;;;;9.73;6.13;;;;;;;4.31;91.36;95665.13;5130717;27;20229;-79
2022/12/26 08:16:19;;;;;;;13.98;5.63;;;;;;;4.29;90.84;95665.38;5120113;27;20704;-77
2022/12/26 08:18:46;;;;;;;10.52;5.72;;;;;;;4.28;91.73;95664.56;5125960;27;20210;-79
2022/12/26 08:21:14;;;;;;;11.52;6.18;;;;;;;4.36;91.98;95662.47;5124840;27;20279;-79
2022/12/26 08:23:41;;;;;;;9.68;4.90;;;;;;;4.38;90.81;95671.84;5132294;27;20792;-78
2022/12/26 08:26:10;;;;;;;13.57;5.63;;;;;;;4.48;90.65;95671.09;5119325;27;20618;-78
2022/12/26 08:28:37;;;;;;;12.65;5.95;;;;;;;4.50;91.22;95677.00;5132752;27;20261;-78
2022/12/26 08:31:06;;;;;;;11.20;5.78;;;;;;;4.65;91.41;95675.13;5119147;27;20259;-79
2022/12/26 08:33:34;;;;;;;11.55;6.43;;;;;;;4.90;90.00;95677.09;5118828;27;20280;-78
2022/12/26 08:36:06;;;;;;;16.05;6.07;;;;;;;5.03;89.45;95677.66;5117809;27;20198;-79
2022/12/26 08:38:35;;;;;;;10.88;5.80;;;;;;;5.24;88.56;95673.91;5124604;27;20204;-78
2022/12/26 08:41:02;;;;;;;7.72;5.25;;;;;;;5.19;87.70;95677.41;5127329;27;20205;-78
2022/12/26 08:43:29;;;;;;;15.60;7.18;;;;;;;5.21;88.14;95666.38;5123642;27;20227;-79
2022/12/26 08:45:59;;;;;;;14.68;6.68;;;;;;;5.47;87.45;95661.81;5113886;27;20233;-79
2022/12/26 08:48:26;;;;;;;10.48;5.10;;;;;;;5.52;86.12;95653.75;5122416;27;20197;-79
2022/12/26 08:51:01;;;;;;;15.77;6.30;;;;;;;5.42;87.25;95654.56;5128455;27;20201;-79
2022/12/26 08:53:31;;;;;;;10.75;5.35;;;;;;;5.75;86.93;95644.31;5120471;27;20664;-79
2022/12/26 08:55:59;;;;;;;12.88;5.75;;;;;;;5.88;85.65;95646.41;5125096;27;20202;-78
2022/12/26 08:58:26;;;;;;;8.32;5.22;;;;;;;6.09;84.31;95637.25;5124065;27;20197;-79
2022/12/26 09:00:53;;;;;;;11.10;4.68;;;;;;;6.03;84.22;95638.34;5111736;27;20210;-78
2022/12/26 09:03:21;;;;;;;9.13;4.38;;;;;;;5.98;82.97;95636.50;5124347;27;20204;-78
2022/12/26 09:05:48;;;;;;;9.43;4.90;;;;;;;6.12;83.10;95635.91;5124708;27;20206;-78
2022/12/26 09:08:14;;;;;;;10.73;5.47;;;;;;;6.13;82.41;95641.03;5126015;27;20333;-78
2022/12/26 09:10:41;;;;;;;8.63;5.22;;;;;;;6.05;82.43;95642.38;5118297;27;20227;-80
2022/12/26 09:13:09;;;;;;;11.43;4.30;;;;;;;6.03;81.63;95632.97;5117751;27;20314;-79
2022/12/26 09:15:36;;;;;;;6.00;3.55;;;;;;;6.07;80.38;95647.50;5123821;27;20225;-78
2022/12/26 09:18:03;;;;;;;18.40;6.82;;;;;;;6.11;80.18;95637.81;5127363;27;20265;-78
2022/12/26 09:20:29;;;;;;;11.00;5.70;;;;;;;5.90;80.58;95649.69;5132488;27;20209;-79
2022/12/26 09:22:56;;;;;;;9.45;4.68;;;;;;;5.93;80.24;95638.38;5130662;27;20281;-79
2022/12/26 09:25:25;;;;;;;11.32;4.95;;;;;;;5.85;80.64;95641.63;5118814;27;20864;-79
2022/12/26 09:27:53;;;;;;;11.77;5.28;;;;;;;5.97;80.28;95644.84;5117245;27;20201;-79
2022/12/26 09:30:22;;;;;;;7.75;3.90;;;;;;;6.07;80.02;95634.84;5122557;27;20732;-78
2022/12/26 09:32:49;;;;;;;14.55;6.55;;;;;;;6.09;80.49;95637.25;5124642;27;20253;-78
2022/12/26 09:35:16;;;;;;;12.45;6.22;;;;;;;6.11;79.69;95640.50;5119860;27;20208;-78
2022/12/26 09:37:43;;;;;;;17.75;8.18;;;;;;;6.12;79.91;95631.34;5117260;27;20638;-78
2022/12/26 09:40:21;;;;;;;9.93;5.82;;;;;;;5.98;80.58;95631.13;5121539;27;20201;-78
2022/12/26 09:43:00;;;;;;;11.05;5.65;;;;;;;6.01;80.56;95624.41;5124486;27;20227;-79
2022/12/26 09:45:45;;;;;;;11.65;6.57;;;;;;;6.21;81.22;95624.31;5124840;27;20200;-80
2022/12/26 09:48:19;;;;;;;12.20;5.97;;;;;;;6.37;80.60;95623.16;5120286;27;20567;-79
2022/12/26 09:50:51;;;;;;;16.40;6.63;;;;;;;6.65;80.60;95623.56;5130347;27;20207;-79
2022/12/26 09:53:29;;;;;;;7.05;4.63;;;;;;;6.62;78.92;95616.03;5130705;27;20197;-79
2022/12/26 09:55:59;;;;;;;10.63;6.18;;;;;;;6.77;77.98;95621.34;5125893;27;20206;-79
2022/12/26 09:58:29;;;;;;;10.30;5.75;;;;;;;6.56;78.70;95614.47;5117940;27;20221;-78
2022/12/26 10:01:02;;;;;;;9.98;5.93;;;;;;;6.73;78.84;95622.97;5123925;27;20205;-79
2022/12/26 10:03:32;;;;;;;8.57;4.88;;;;;;;6.71;78.43;95607.09;5123806;27;20189;-79
2022/12/26 10:06:10;;;;;;;9.75;5.75;;;;;;;6.72;78.34;95610.59;5117744;27;20205;-79
2022/12/26 10:08:58;;;;;;;17.63;11.10;;;;;;;6.92;78.97;95606.97;5117585;28;20193;-79
2022/12/26 10:11:37;;;;;;;11.93;7.15;;;;;;;6.98;77.29;95595.84;5118539;27;20202;-78
2022/12/26 10:14:13;;;;;;;9.85;6.03;;;;;;;7.28;77.56;95599.41;5117739;27;20245;-79
2022/12/26 10:16:52;;;;;;;9.45;6.13;;;;;;;7.38;76.92;95588.56;5116935;28;20209;-79
2022/12/26 10:19:36;;;;;;;13.07;7.15;;;;;;;7.64;77.06;95576.44;5120002;28;20245;-79
2022/12/26 10:22:17;;;;;;;20.30;7.03;;;;;;;7.56;74.72;95585.13;5123272;28;20202;-79
2022/12/26 10:24:46;;;;;;;6.25;4.13;;;;;;;7.59;74.60;95576.47;5110451;28;20197;-78
2022/12/26 10:27:16;;;;;;;11.20;5.28;;;;;;;7.62;75.28;95567.03;5110351;28;20205;-78
2022/12/26 10:29:51;;;;;;;10.95;5.63;;;;;;;7.62;74.89;95562.44;5123654;28;20201;-79
2022/12/26 10:32:25;;;;;;;9.25;5.57;;;;;;;7.78;75.08;95576.56;5120211;28;20196;-80
2022/12/26 10:34:53;;;;;;;10.75;5.35;;;;;;;7.81;74.03;95552.50;5117042;28;20241;-79
2022/12/26 10:37:25;;;;;;;10.80;6.07;;;;;;;7.70;74.20;95567.19;5117729;28;20228;-78
2022/12/26 10:39:56;;;;;;;10.05;5.43;;;;;;;7.78;74.71;95566.56;5108281;28;20544;-79
2022/12/26 10:42:27;;;;;;;10.55;5.32;;;;;;;7.90;73.99;95552.69;5123755;28;20193;-78
2022/12/26 10:44:54;;;;;;;8.77;4.65;;;;;;;8.04;72.82;95553.59;5117611;28;20724;-78
2022/12/26 10:47:28;;;;;;;8.85;4.93;;;;;;;8.23;72.14;95553.59;5115538;27;20218;-78
2022/12/26 10:49:58;;;;;;;13.63;7.78;;;;;;;8.21;71.95;95553.09;5118545;28;20198;-78
2022/12/26 10:52:31;;;;;;;13.07;5.72;;;;;;;8.15;72.51;95549.66;5127339;28;20193;-78
2022/12/26 10:55:00;;;;;;;10.15;4.03;;;;;;;8.43;71.67;95539.88;5120739;27;20558;-78
2022/12/26 10:57:29;;;;;;;7.70;4.45;;;;;;;8.55;70.68;95552.94;5124015;27;20688;-78
2022/12/26 10:59:57;;;;;;;8.48;4.20;;;;;;;8.41;70.68;95549.38;5124961;27;20211;-78
2022/12/26 11:02:28;;;;;;;11.00;4.82;;;;;;;8.41;71.32;95542.06;5115863;27;20216;-77
2022/12/26 11:05:00;;;;;;;6.30;3.85;;;;;;;8.62;70.89;95536.38;5125402;27;20196;-78
2022/12/26 11:07:30;;;;;;;6.63;3.95;;;;;;;8.54;70.39;95529.75;5127988;27;20209;-78
2022/12/26 11:09:58;;;;;;;12.68;7.72;;;;;;;8.41;70.24;95536.66;5127148;27;20205;-79
2022/12/26 11:12:31;;;;;;;8.70;4.53;;;;;;;8.55;70.97;95534.84;5127130;27;20239;-78
2022/12/26 11:15:00;;;;;;;5.88;3.72;;;;;;;8.59;69.85;95531.56;5114597;27;20217;-77
2022/12/26 11:17:30;;;;;;;11.40;3.72;;;;;;;8.63;69.85;95517.16;5125831;27;20277;-79
2022/12/26 11:20:22;;;;;;;9.57;4.57;;;;;;;8.61;69.58;95519.34;5116719;27;20227;-78
2022/12/26 11:22:50;;;;;;;7.10;3.08;;;;;;;8.76;69.63;95516.44;5121000;27;20661;-78
2022/12/26 11:25:20;;;;;;;7.55;3.92;;;;;;;8.83;68.71;95516.06;5119181;27;20675;-79
2022/12/26 11:27:49;;;;;;;7.57;4.25;;;;;;;8.78;69.33;95510.72;5119989;27;20205;-80
2022/12/26 11:30:22;;;;;;;8.40;5.07;;;;;;;8.98;68.54;95502.31;5119963;27;20316;-79
2022/12/26 11:33:04;;;;;;;10.90;4.10;;;;;;;8.94;68.41;95509.41;5119478;27;20613;-79
2022/12/26 11:35:35;;;;;;;8.20;4.28;;;;;;;8.89;68.78;95504.06;5123164;27;20197;-78
2022/12/26 11:38:05;;;;;;;6.80;3.42;;;;;;;9.00;68.99;95494.72;5126797;27;20213;-78
2022/12/26 11:40:36;;;;;;;7.90;4.18;;;;;;;9.20;68.02;95499.75;5124378;27;20199;-78
2022/12/26 11:43:06;;;;;;;10.05;5.10;;;;;;;9.12;67.80;95497.75;5119066;27;20882;-78
2022/12/26 11:45:40;;;;;;;8.38;4.10;;;;;;;9.27;68.09;95493.97;5133187;27;20286;-78
2022/12/26 11:48:22;;;;;;;14.38;4.93;;;;;;;9.33;67.83;95491.97;5113193;28;20193;-78
2022/12/26 11:50:48;;;;;;;9.43;4.00;;;;;;;9.39;66.86;95485.38;5126533;27;20621;-78
2022/12/26 11:53:18;;;;;;;10.75;6.00;;;;;;;9.51;67.30;95478.38;5122943;27;20201;-80
2022/12/26 11:55:57;;;;;;;9.05;4.18;;;;;;;9.57;66.34;95479.06;5119129;27;20280;-80
2022/12/26 11:58:26;;;;;;;4.57;2.85;;;;;;;9.47;67.01;95481.97;5125513;27;20846;-79
2022/12/26 12:01:11;;;;;;;9.70;5.15;;;;;;;9.63;66.77;95475.19;5119281;27;20250;-78
2022/12/26 12:03:42;;;;;;;10.43;4.35;;;;;;;9.57;65.89;95470.94;5120245;27;20255;-78
2022/12/26 12:06:22;;;;;;;8.60;4.18;;;;;;;9.58;66.09;95478.78;5124763;27;20198;-80
2022/12/26 12:08:58;;;;;;;11.68;6.07;;;;;;;9.62;66.48;95463.56;5125984;27;20200;-78
2022/12/26 12:11:34;;;;;;;9.85;4.07;;;;;;;9.37;67.19;95460.53;5125587;27;20201;-79
2022/12/26 12:14:26;;;;;;;8.68;4.20;;;;;;;9.50;67.20;95457.84;5120089;27;20644;-79
2022/12/26 12:17:02;;;;;;;8.18;4.68;;;;;;;9.59;66.57;95458.75;5119529;27;20204;-80
2022/12/26 12:19:42;;;;;;;13.50;5.55;;;;;;;9.62;66.65;95451.94;5120312;27;20270;-79
2022/12/26 12:22:33;;;;;;;8.35;4.50;;;;;;;9.57;66.34;95449.31;5112859;28;20274;-78
2022/12/26 12:25:47;;;;;;;12.32;3.45;;;;;;;9.63;65.82;95453.53;5124207;27;20202;-79
2022/12/26 12:28:37;;;;;;;4.57;2.15;;;;;;;9.48;65.93;95457.34;5048755;28;20195;-79
2022/12/26 12:31:10;;;;;;;5.07;2.78;;;;;;;9.71;64.95;95457.44;5048956;28;20710;-79
2022/12/26 12:33:48;;;;;;;7.32;2.65;;;;;;;9.78;64.38;95455.94;5103214;27;20261;-78
2022/12/26 12:36:23;;;;;;;6.90;2.33;;;;;;;9.70;64.39;95455.84;5118447;27;20201;-78
2022/12/26 12:39:01;;;;;;;2.40;1.70;;;;;;;9.68;64.51;95458.84;5120774;27;20220;-77
2022/12/26 12:41:47;;;;;;;6.18;2.28;;;;;;;9.75;64.67;95453.84;5125318;27;20693;-78
2022/12/26 12:44:24;;;;;;;6.07;3.65;;;;;;;9.86;64.79;95463.34;5114196;27;20302;-78
2022/12/26 12:46:56;;;;;;;6.50;2.83;;;;;;;9.95;64.48;95461.53;5121409;27;20816;-80
2022/12/26 12:49:43;;;;;;;7.75;4.55;;;;;;;9.97;63.77;95453.13;5125651;27;20255;-79
2022/12/26 12:52:22;;;;;;;10.50;3.22;;;;;;;9.96;63.61;95463.16;5126285;27;20246;-79
2022/12/26 12:55:19;;;;;;;5.50;3.20;;;;;;;10.01;64.64;95451.38;5132905;27;20196;-79
2022/12/26 12:57:52;;;;;;;3.80;2.10;;;;;;;9.98;63.95;95454.69;5119219;27;20213;-79
2022/12/26 13:00:22;;;;;;;3.38;1.65;;;;;;;9.96;63.80;95457.72;5125910;27;20934;-79
2022/12/26 13:02:55;;;;;;;2.05;1.48;;;;;;;9.90;64.16;95460.84;5131770;27;20253;-80
2022/12/26 13:05:39;;;;;;;6.45;1.75;;;;;;;9.96;64.67;95457.72;5118260;27;20198;-79
2022/12/26 13:08:14;;;;;;;5.50;2.80;;;;;;;9.93;64.55;95455.63;5120013;27;20205;-78
2022/12/26 13:10:49;;;;;;;1.95;1.70;;;;;;;9.87;64.29;95454.13;5111016;27;20547;-80
2022/12/26 13:13:22;;;;;;;2.60;1.73;;;;;;;9.78;65.08;95455.94;5123934;27;20282;-79
2022/12/26 13:15:52;;;;;;;4.05;2.17;;;;;;;9.77;64.14;95454.34;5119354;27;20193;-79
2022/12/26 13:18:23;;;;;;;2.25;1.50;;;;;;;9.70;64.04;95448.53;5115681;27;20287;-78
2022/12/26 13:20:53;;;;;;;1.67;1.42;;;;;;;9.71;64.25;95449.31;5120576;27;20679;-79
2022/12/26 13:26:17;;;;;;;5.30;2.83;;;;;;;9.53;63.65;95459.16;5124703;27;20196;-80
2022/12/26 13:28:54;;;;;;;1.67;1.55;;;;;;;9.67;64.30;95459.97;5123405;27;20710;-79
2022/12/26 13:31:21;;;;;;;2.42;1.35;;;;;;;9.75;63.86;95456.53;5124719;27;20258;-79
2022/12/26 13:33:48;;;;;;;1.48;1.17;;;;;;;9.74;63.94;95454.13;5110958;28;20248;-79
2022/12/26 13:36:34;;;;;;;6.15;2.80;;;;;;;9.66;64.16;95447.53;5124394;27;20209;-78
2022/12/26 13:39:30;;;;;;;5.38;2.92;;;;;;;9.63;64.05;95453.53;5110585;28;20218;-78
2022/12/26 13:44:48;;;;;;;2.30;1.60;;;;;;;9.42;65.16;95446.94;5123791;27;20228;-79
2022/12/26 13:47:33;;;;;;;2.05;1.60;;;;;;;9.33;65.40;95444.09;5124503;27;20200;-79
2022/12/26 13:50:45;;;;;;;3.55;1.73;;;;;;;9.21;65.71;95451.91;5120053;27;20926;-79
2022/12/26 13:53:28;;;;;;;3.65;1.48;;;;;;;9.19;66.30;95454.91;5119918;27;20644;-79
2022/12/26 13:55:58;;;;;;;2.35;1.70;;;;;;;9.07;66.25;95451.88;5126388;27;20193;-79
2022/12/26 13:58:40;;;;;;;5.63;3.17;;;;;;;9.00;66.74;95456.88;5118121;27;20741;-79
2022/12/26 14:01:20;;;;;;;7.20;1.50;;;;;;;8.91;66.79;95455.94;5117174;27;20666;-79
2022/12/26 14:04:16;;;;;;;2.30;1.50;;;;;;;8.91;67.37;95458.66;5116969;27;20201;-79
2022/12/26 14:06:58;;;;;;;2.45;1.60;;;;;;;8.89;67.46;95463.53;5116945;27;20258;-78
2022/12/26 14:09:38;;;;;;;4.70;2.08;;;;;;;8.78;68.19;95454.00;5119677;27;20245;-79